Time;durP1;ratioP1;P1;durP2;ratioP2;P2;SDS_P1;SDS_P2;PMS_P1;PMS_P2;Temp;Humidity;BMP_temperature;BMP_pressure;BME280_temperature;BME280_humidity;BME280_pressure;Samples;Min_cycle;Max_cycle;Signal;HPM_P1;HPM_P2
2024/01/03 00:00:26;;;;;;;1.60;0.50;;;;;;;;;;5043323;28;20449;-70
2024/01/03 00:02:53;;;;;;;0.40;0.40;;;;;;;;;;5051732;28;20815;-70
2024/01/03 00:05:23;;;;;;;2.22;0.40;;;;;;;;;;5043119;28;21382;-70
2024/01/03 00:07:54;;;;;;;1.65;1.30;;;;;;;;;;5046504;28;20762;-70
2024/01/03 00:10:43;;;;;;;0.85;0.50;;;;;;;;;;5043288;28;20487;-70
2024/01/03 00:13:35;;;;;;;1.20;0.40;;;;;;;;;;5044362;28;20425;-69
2024/01/03 00:16:06;;;;;;;1.25;0.43;;;;;;;;;;5034817;28;20469;-69
2024/01/03 00:18:38;;;;;;;3.38;0.63;;;;;;;;;;5038643;28;20490;-69
2024/01/03 00:21:06;;;;;;;0.83;0.50;;;;;;;;;;5046536;28;20425;-69
2024/01/03 00:23:38;;;;;;;0.77;0.60;;;;;;;;;;5044686;28;20441;-69
2024/01/03 00:26:10;;;;;;;1.37;0.50;;;;;;;;;;5050532;28;20432;-69
2024/01/03 00:28:37;;;;;;;1.10;0.63;;;;;;;;;;5050241;28;20429;-68
2024/01/03 00:31:09;;;;;;;1.38;0.60;;;;;;;;;;5036054;28;20907;-69
2024/01/03 00:33:40;;;;;;;0.40;0.40;;;;;;;;;;5036014;28;20425;-70
2024/01/03 00:36:09;;;;;;;1.25;0.50;;;;;;;;;;5032122;28;20438;-69
2024/01/03 00:38:42;;;;;;;1.40;0.57;;;;;;;;;;5035125;28;20436;-69
2024/01/03 00:41:10;;;;;;;1.38;0.60;;;;;;;;;;5041818;28;20437;-69
2024/01/03 00:43:37;;;;;;;0.70;0.63;;;;;;;;;;5035831;28;20921;-69
2024/01/03 00:46:05;;;;;;;1.00;0.50;;;;;;;;;;5034856;28;20950;-69
2024/01/03 00:48:32;;;;;;;0.73;0.50;;;;;;;;;;5039320;28;20993;-68
2024/01/03 00:51:01;;;;;;;1.63;0.50;;;;;;;;;;5042299;28;20421;-69
2024/01/03 00:53:28;;;;;;;0.90;0.47;;;;;;;;;;5040103;28;20440;-68
2024/01/03 00:55:55;;;;;;;1.45;0.60;;;;;;;;;;5043253;28;20425;-69
2024/01/03 00:58:22;;;;;;;2.03;0.60;;;;;;;;;;5049769;28;20436;-68
2024/01/03 01:00:50;;;;;;;1.40;0.55;;;;;;;;;;5040570;28;20471;-69
2024/01/03 01:03:23;;;;;;;1.27;0.65;;;;;;;;;;5041738;28;20439;-69
2024/01/03 01:05:51;;;;;;;1.75;0.68;;;;;;;;;;5043121;28;20459;-69
2024/01/03 01:08:18;;;;;;;3.95;0.80;;;;;;;;;;5043342;28;20429;-69
2024/01/03 01:10:47;;;;;;;1.80;0.50;;;;;;;;;;5035825;28;20421;-69
2024/01/03 01:13:14;;;;;;;1.00;0.60;;;;;;;;;;5033923;28;20431;-69
2024/01/03 01:15:41;;;;;;;2.03;0.52;;;;;;;;;;5047394;28;20438;-69
2024/01/03 01:18:12;;;;;;;2.00;0.52;;;;;;;;;;5046596;28;20425;-69
2024/01/03 01:20:39;;;;;;;4.55;0.70;;;;;;;;;;5040237;28;20431;-69
2024/01/03 01:23:10;;;;;;;0.68;0.50;;;;;;;;;;5041943;28;20431;-68
2024/01/03 01:25:37;;;;;;;0.30;0.30;;;;;;;;;;5033774;28;20433;-70
2024/01/03 01:28:04;;;;;;;1.02;0.38;;;;;;;;;;5042668;28;20492;-69
2024/01/03 01:30:32;;;;;;;1.48;0.50;;;;;;;;;;5049165;28;20433;-69
2024/01/03 01:33:01;;;;;;;1.70;0.50;;;;;;;;;;5041723;28;21022;-69
2024/01/03 01:35:29;;;;;;;2.30;0.60;;;;;;;;;;5029564;28;20428;-69
2024/01/03 01:37:56;;;;;;;1.20;0.30;;;;;;;;;;5031021;28;20442;-69
2024/01/03 01:40:23;;;;;;;1.33;0.50;;;;;;;;;;5039396;28;20530;-69
2024/01/03 01:42:50;;;;;;;0.90;0.40;;;;;;;;;;5041834;28;20486;-70
2024/01/03 01:45:20;;;;;;;2.38;0.47;;;;;;;;;;5042765;28;20433;-69
2024/01/03 01:47:51;;;;;;;1.02;0.40;;;;;;;;;;5044121;28;21681;-69
2024/01/03 01:50:19;;;;;;;0.90;0.40;;;;;;;;;;5031772;28;20441;-69
2024/01/03 01:52:47;;;;;;;0.70;0.40;;;;;;;;;;5041547;28;20447;-69
2024/01/03 01:55:18;;;;;;;0.45;0.30;;;;;;;;;;5032747;28;20438;-69
2024/01/03 01:57:45;;;;;;;1.40;0.40;;;;;;;;;;5044894;28;20496;-68
2024/01/03 02:00:13;;;;;;;1.27;0.43;;;;;;;;;;5036224;28;20560;-69
2024/01/03 02:02:42;;;;;;;2.63;0.60;;;;;;;;;;5035010;28;20456;-69
2024/01/03 02:05:09;;;;;;;1.67;0.60;;;;;;;;;;5034072;28;21016;-69
2024/01/03 02:07:39;;;;;;;0.40;0.40;;;;;;;;;;5039628;28;20955;-69
2024/01/03 02:10:08;;;;;;;1.95;0.50;;;;;;;;;;5038999;28;20506;-69
2024/01/03 02:12:38;;;;;;;1.20;0.60;;;;;;;;;;5029206;28;20441;-69
2024/01/03 02:15:05;;;;;;;1.80;0.50;;;;;;;;;;5046134;28;20433;-70
2024/01/03 02:17:33;;;;;;;2.20;0.50;;;;;;;;;;5030240;28;20514;-71
2024/01/03 02:20:04;;;;;;;2.17;0.50;;;;;;;;;;5033182;28;20897;-69
2024/01/03 02:22:31;;;;;;;2.50;0.60;;;;;;;;;;5040613;28;20517;-69
2024/01/03 02:24:59;;;;;;;2.20;0.63;;;;;;;;;;5040969;28;20457;-69
2024/01/03 02:27:27;;;;;;;2.43;0.70;;;;;;;;;;5040503;28;20456;-68
2024/01/03 02:29:56;;;;;;;2.63;0.70;;;;;;;;;;5041374;28;20513;-69
2024/01/03 02:32:23;;;;;;;4.90;0.90;;;;;;;;;;5046211;28;20908;-68
2024/01/03 02:34:50;;;;;;;3.80;1.13;;;;;;;;;;5031602;28;20437;-69
2024/01/03 02:37:22;;;;;;;4.05;0.90;;;;;;;;;;5032456;28;20431;-69
2024/01/03 02:39:50;;;;;;;1.10;0.87;;;;;;;;;;5038250;28;20522;-69
2024/01/03 02:42:20;;;;;;;5.77;0.90;;;;;;;;;;5034759;28;20470;-68
2024/01/03 02:44:47;;;;;;;4.25;1.08;;;;;;;;;;5048846;28;20516;-69
2024/01/03 02:47:14;;;;;;;3.97;1.00;;;;;;;;;;5040356;28;20445;-68
2024/01/03 02:49:41;;;;;;;3.65;1.05;;;;;;;;;;5040288;28;20434;-68
2024/01/03 02:52:08;;;;;;;6.80;1.30;;;;;;;;;;5044857;28;20441;-68
2024/01/03 02:54:36;;;;;;;2.00;1.00;;;;;;;;;;5040003;28;20454;-68
2024/01/03 02:57:03;;;;;;;3.38;1.00;;;;;;;;;;5035680;28;20439;-69
2024/01/03 02:59:30;;;;;;;3.30;0.90;;;;;;;;;;5034364;28;20508;-68
2024/01/03 03:01:58;;;;;;;3.53;1.00;;;;;;;;;;5047045;28;20436;-68
2024/01/03 03:04:25;;;;;;;4.10;0.98;;;;;;;;;;5047404;28;21073;-68
2024/01/03 03:06:55;;;;;;;4.53;0.73;;;;;;;;;;5043316;28;20518;-68
2024/01/03 03:09:22;;;;;;;2.40;0.90;;;;;;;;;;5028319;28;20427;-68
2024/01/03 03:11:50;;;;;;;1.83;0.90;;;;;;;;;;5036980;28;20427;-68
2024/01/03 03:14:17;;;;;;;4.20;1.08;;;;;;;;;;5038715;28;20492;-69
2024/01/03 03:16:44;;;;;;;4.40;0.90;;;;;;;;;;5030287;28;20952;-68
2024/01/03 03:19:20;;;;;;;2.95;0.70;;;;;;;;;;5028506;28;20469;-68
2024/01/03 03:21:47;;;;;;;3.25;0.82;;;;;;;;;;5031832;28;20483;-68
2024/01/03 03:24:18;;;;;;;1.98;0.63;;;;;;;;;;5047709;28;20455;-68
2024/01/03 03:26:45;;;;;;;2.10;1.07;;;;;;;;;;5032411;28;20451;-68
2024/01/03 03:29:12;;;;;;;1.33;0.70;;;;;;;;;;5039913;28;20443;-68
2024/01/03 03:31:39;;;;;;;1.65;0.77;;;;;;;;;;5029114;28;20426;-68
2024/01/03 03:34:06;;;;;;;1.70;0.60;;;;;;;;;;5029944;28;20789;-68
2024/01/03 03:36:34;;;;;;;1.70;0.70;;;;;;;;;;5039191;28;20530;-69
2024/01/03 03:39:01;;;;;;;2.38;0.68;;;;;;;;;;5041184;28;20447;-70
2024/01/03 03:41:28;;;;;;;1.97;0.70;;;;;;;;;;5045430;28;20435;-69
2024/01/03 03:43:55;;;;;;;2.08;0.70;;;;;;;;;;5044450;28;20438;-68
2024/01/03 03:46:23;;;;;;;1.83;0.60;;;;;;;;;;5039316;28;20489;-68
2024/01/03 03:48:50;;;;;;;2.28;0.65;;;;;;;;;;5045172;28;20429;-69
2024/01/03 03:51:20;;;;;;;2.65;0.73;;;;;;;;;;5034918;28;20430;-68
2024/01/03 03:53:50;;;;;;;2.20;1.00;;;;;;;;;;5032143;28;20433;-68
2024/01/03 03:56:29;;;;;;;2.63;0.90;;;;;;;;;;5040599;28;20427;-68
2024/01/03 03:58:56;;;;;;;2.88;0.85;;;;;;;;;;5037687;28;20429;-67
2024/01/03 04:01:23;;;;;;;1.87;0.70;;;;;;;;;;5034469;28;20750;-68
2024/01/03 04:03:51;;;;;;;2.47;0.60;;;;;;;;;;5038723;28;20439;-68
2024/01/03 04:06:21;;;;;;;2.53;0.82;;;;;;;;;;5043204;28;20486;-69
2024/01/03 04:08:52;;;;;;;3.78;0.80;;;;;;;;;;5045750;28;20460;-68
2024/01/03 04:11:19;;;;;;;4.95;0.65;;;;;;;;;;5043782;28;20444;-68
2024/01/03 04:13:47;;;;;;;5.13;1.10;;;;;;;;;;5041541;28;20872;-66
2024/01/03 04:16:17;;;;;;;5.53;1.20;;;;;;;;;;5050931;28;20468;-67
2024/01/03 04:18:45;;;;;;;5.63;1.40;;;;;;;;;;5047733;28;20457;-68
2024/01/03 04:21:13;;;;;;;4.65;1.40;;;;;;;;;;5036547;28;20433;-67
2024/01/03 04:23:40;;;;;;;6.50;1.40;;;;;;;;;;5045051;28;20433;-68
2024/01/03 04:26:07;;;;;;;4.55;1.20;;;;;;;;;;5043139;28;20535;-67
2024/01/03 04:28:34;;;;;;;6.13;1.30;;;;;;;;;;5047563;28;20461;-68
2024/01/03 04:31:04;;;;;;;4.72;1.50;;;;;;;;;;5039988;28;20431;-67
2024/01/03 04:33:31;;;;;;;5.40;1.20;;;;;;;;;;5039463;28;20897;-67
2024/01/03 04:35:59;;;;;;;6.75;1.45;;;;;;;;;;5035973;28;20425;-67
2024/01/03 04:38:26;;;;;;;5.40;1.42;;;;;;;;;;5036042;28;20969;-67
2024/01/03 04:40:53;;;;;;;7.80;1.23;;;;;;;;;;5037695;28;20435;-68
2024/01/03 04:43:23;;;;;;;5.20;1.13;;;;;;;;;;5050921;28;20481;-69
2024/01/03 04:45:50;;;;;;;5.50;1.55;;;;;;;;;;5039685;28;20475;-68
2024/01/03 04:48:20;;;;;;;4.45;1.20;;;;;;;;;;5042911;28;20429;-68
2024/01/03 04:50:47;;;;;;;4.83;1.17;;;;;;;;;;5047335;28;20483;-68
2024/01/03 04:53:15;;;;;;;5.97;1.30;;;;;;;;;;5031172;28;20493;-67
2024/01/03 04:55:42;;;;;;;5.45;1.30;;;;;;;;;;5032382;28;21006;-68
2024/01/03 04:58:10;;;;;;;4.40;1.00;;;;;;;;;;5036629;28;20428;-68
2024/01/03 05:00:40;;;;;;;4.97;1.20;;;;;;;;;;5040133;28;20439;-68
2024/01/03 05:03:08;;;;;;;7.20;1.33;;;;;;;;;;5039949;28;20777;-68
2024/01/03 05:05:36;;;;;;;4.60;1.55;;;;;;;;;;5042227;28;20430;-68
2024/01/03 05:08:03;;;;;;;4.10;1.23;;;;;;;;;;5037190;28;20435;-68
2024/01/03 05:10:30;;;;;;;3.55;1.10;;;;;;;;;;5035613;28;20503;-68
2024/01/03 05:12:57;;;;;;;5.88;1.45;;;;;;;;;;5039188;28;20517;-67
2024/01/03 05:15:24;;;;;;;6.97;1.42;;;;;;;;;;5045000;28;20435;-68
2024/01/03 05:17:54;;;;;;;6.68;1.58;;;;;;;;;;5034813;28;20796;-68
2024/01/03 05:20:21;;;;;;;6.03;1.80;;;;;;;;;;5039781;28;20439;-68
2024/01/03 05:22:49;;;;;;;5.55;1.77;;;;;;;;;;5030944;28;20443;-68
2024/01/03 05:25:16;;;;;;;6.35;1.40;;;;;;;;;;5037372;28;20919;-68
2024/01/03 05:27:43;;;;;;;4.95;1.35;;;;;;;;;;5050644;28;20799;-68
2024/01/03 05:30:13;;;;;;;5.28;1.58;;;;;;;;;;5049790;28;20431;-68
2024/01/03 05:32:40;;;;;;;4.30;1.17;;;;;;;;;;5048701;28;20520;-68
2024/01/03 05:35:10;;;;;;;6.93;1.20;;;;;;;;;;5041677;28;20572;-68
2024/01/03 05:37:38;;;;;;;7.47;1.40;;;;;;;;;;5048624;28;20433;-68
2024/01/03 05:40:09;;;;;;;5.13;1.13;;;;;;;;;;5036925;28;20444;-68
2024/01/03 05:42:36;;;;;;;5.20;1.25;;;;;;;;;;5041026;28;20430;-68
2024/01/03 05:45:03;;;;;;;5.78;1.23;;;;;;;;;;5041676;28;20429;-68
2024/01/03 05:47:31;;;;;;;6.80;1.40;;;;;;;;;;5047503;28;20429;-68
2024/01/03 05:49:58;;;;;;;7.40;1.48;;;;;;;;;;5039635;28;20446;-69
2024/01/03 05:52:28;;;;;;;4.97;1.38;;;;;;;;;;5045782;28;20421;-68
2024/01/03 05:54:55;;;;;;;5.38;1.40;;;;;;;;;;5045012;28;20522;-68
2024/01/03 05:57:22;;;;;;;5.20;1.30;;;;;;;;;;5042066;28;20430;-68
2024/01/03 05:59:49;;;;;;;6.93;1.70;;;;;;;;;;5040958;28;20423;-68
2024/01/03 06:02:17;;;;;;;6.13;1.45;;;;;;;;;;5043854;28;20437;-68
2024/01/03 06:04:46;;;;;;;6.53;1.33;;;;;;;;;;5034741;28;20544;-68
2024/01/03 06:07:13;;;;;;;6.28;1.40;;;;;;;;;;5044612;28;20429;-68
2024/01/03 06:09:40;;;;;;;6.80;1.23;;;;;;;;;;5048896;28;20896;-68
2024/01/03 06:12:10;;;;;;;4.73;1.47;;;;;;;;;;5036694;28;20517;-68
2024/01/03 06:14:41;;;;;;;8.77;2.03;;;;;;;;;;5034071;28;20431;-68
2024/01/03 06:17:12;;;;;;;7.10;1.30;;;;;;;;;;5034918;28;20431;-68
2024/01/03 06:19:39;;;;;;;6.03;1.45;;;;;;;;;;5030283;28;20431;-68
2024/01/03 06:22:10;;;;;;;7.45;1.73;;;;;;;;;;5042364;28;20427;-68
2024/01/03 06:24:37;;;;;;;4.47;1.42;;;;;;;;;;5044900;28;20436;-68
2024/01/03 06:27:04;;;;;;;4.43;1.13;;;;;;;;;;5042481;28;20512;-68
2024/01/03 06:29:31;;;;;;;7.88;1.27;;;;;;;;;;5040647;28;20809;-67
2024/01/03 06:31:59;;;;;;;4.03;1.17;;;;;;;;;;5033462;28;20425;-67
2024/01/03 06:34:26;;;;;;;6.35;1.40;;;;;;;;;;5046637;28;20857;-67
2024/01/03 06:37:00;;;;;;;5.00;1.35;;;;;;;;;;5048920;28;20467;-67
2024/01/03 06:39:29;;;;;;;4.90;1.37;;;;;;;;;;5040547;28;20437;-67
2024/01/03 06:41:56;;;;;;;4.85;1.15;;;;;;;;;;5033735;28;20524;-67
2024/01/03 06:44:23;;;;;;;2.60;0.82;;;;;;;;;;5034371;28;20444;-67
2024/01/03 06:46:51;;;;;;;2.90;1.10;;;;;;;;;;5047624;28;20447;-67
2024/01/03 06:49:18;;;;;;;6.10;1.40;;;;;;;;;;5034946;28;20538;-67
2024/01/03 06:51:47;;;;;;;4.53;1.10;;;;;;;;;;5028825;28;20427;-67
2024/01/03 06:54:14;;;;;;;5.47;0.97;;;;;;;;;;5033543;28;20435;-67
2024/01/03 06:56:41;;;;;;;8.85;1.65;;;;;;;;;;5037207;28;20434;-67
2024/01/03 06:59:09;;;;;;;5.50;1.30;;;;;;;;;;5032584;28;20431;-67
2024/01/03 07:01:37;;;;;;;6.55;2.00;;;;;;;;;;5036359;28;20518;-67
2024/01/03 07:04:04;;;;;;;6.28;1.38;;;;;;;;;;5028477;28;20466;-67
2024/01/03 07:06:31;;;;;;;4.50;1.33;;;;;;;;;;5041933;28;20488;-67
2024/01/03 07:08:59;;;;;;;5.80;1.40;;;;;;;;;;5030549;28;20435;-67
2024/01/03 07:11:29;;;;;;;3.85;1.48;;;;;;;;;;5041650;28;20911;-67
2024/01/03 07:13:59;;;;;;;8.37;1.57;;;;;;;;;;5045098;28;20523;-67
2024/01/03 07:16:27;;;;;;;7.40;1.55;;;;;;;;;;5034117;28;20435;-67
2024/01/03 07:18:54;;;;;;;8.85;1.60;;;;;;;;;;5027045;28;20498;-67
2024/01/03 07:21:25;;;;;;;8.20;1.80;;;;;;;;;;5036584;28;20438;-67
2024/01/03 07:23:52;;;;;;;6.68;1.30;;;;;;;;;;5037330;28;20438;-67
2024/01/03 07:26:20;;;;;;;6.53;1.52;;;;;;;;;;5033114;28;20438;-67
2024/01/03 07:28:48;;;;;;;4.77;1.50;;;;;;;;;;5043962;28;20525;-68
2024/01/03 07:31:18;;;;;;;7.07;1.48;;;;;;;;;;5037552;28;20435;-67
2024/01/03 07:33:45;;;;;;;6.90;1.30;;;;;;;;;;5032162;28;20431;-67
2024/01/03 07:36:12;;;;;;;7.80;1.55;;;;;;;;;;5046038;28;20491;-67
2024/01/03 07:38:44;;;;;;;4.53;1.48;;;;;;;;;;5051421;28;20952;-67
2024/01/03 07:41:11;;;;;;;4.05;1.30;;;;;;;;;;5040120;28;20439;-67
2024/01/03 07:43:38;;;;;;;4.75;0.95;;;;;;;;;;5044237;28;20436;-67
2024/01/03 07:46:06;;;;;;;5.60;1.27;;;;;;;;;;5048682;28;20490;-67
2024/01/03 07:48:35;;;;;;;4.82;1.27;;;;;;;;;;5047528;28;20429;-67
2024/01/03 07:51:03;;;;;;;3.97;1.05;;;;;;;;;;5043826;28;20433;-67
2024/01/03 07:53:30;;;;;;;6.47;1.25;;;;;;;;;;5039750;28;20431;-67
2024/01/03 07:55:57;;;;;;;3.35;1.10;;;;;;;;;;5041829;28;20438;-67
2024/01/03 07:58:24;;;;;;;3.63;0.90;;;;;;;;;;5042179;28;20831;-68
2024/01/03 08:00:51;;;;;;;3.17;0.73;;;;;;;;;;5042799;28;20429;-67
2024/01/03 08:03:19;;;;;;;2.75;0.75;;;;;;;;;;5043069;28;20438;-67
2024/01/03 08:05:46;;;;;;;4.25;0.70;;;;;;;;;;5048064;28;20520;-65
2024/01/03 08:08:14;;;;;;;3.77;0.97;;;;;;;;;;5043910;28;20937;-66
2024/01/03 08:10:41;;;;;;;2.90;0.90;;;;;;;;;;5045257;28;20497;-66
2024/01/03 08:13:12;;;;;;;4.43;0.93;;;;;;;;;;5048597;28;20916;-66
2024/01/03 08:15:39;;;;;;;3.85;1.00;;;;;;;;;;5044909;28;20938;-66
2024/01/03 08:18:06;;;;;;;2.90;0.77;;;;;;;;;;5043241;28;20490;-66
2024/01/03 08:20:37;;;;;;;0.82;0.50;;;;;;;;;;5048080;28;20457;-66
2024/01/03 08:23:05;;;;;;;3.50;0.75;;;;;;;;;;5038140;28;20462;-66
2024/01/03 08:25:32;;;;;;;2.97;0.88;;;;;;;;;;5037587;28;21128;-66
2024/01/03 08:28:02;;;;;;;2.90;0.75;;;;;;;;;;5035527;28;20484;-66
2024/01/03 08:30:29;;;;;;;2.13;0.57;;;;;;;;;;5043432;28;20433;-66
2024/01/03 08:32:56;;;;;;;2.92;0.80;;;;;;;;;;5040725;28;20509;-66
2024/01/03 08:35:27;;;;;;;2.28;0.73;;;;;;;;;;5042431;28;20452;-66
2024/01/03 08:37:57;;;;;;;1.92;0.65;;;;;;;;;;5039188;28;20429;-66
2024/01/03 08:40:24;;;;;;;3.28;0.57;;;;;;;;;;5032576;28;20443;-66
2024/01/03 08:42:51;;;;;;;2.63;0.68;;;;;;;;;;5037737;28;20429;-66
2024/01/03 08:45:19;;;;;;;1.52;0.50;;;;;;;;;;5044913;28;20487;-66
2024/01/03 08:47:47;;;;;;;1.83;0.60;;;;;;;;;;5043342;28;20429;-65
2024/01/03 08:50:18;;;;;;;2.88;0.93;;;;;;;;;;5034943;28;20442;-66
2024/01/03 08:52:45;;;;;;;0.88;0.60;;;;;;;;;;5044778;28;20804;-66
2024/01/03 08:55:15;;;;;;;1.48;0.50;;;;;;;;;;5047457;28;20456;-66
2024/01/03 08:57:43;;;;;;;1.50;0.50;;;;;;;;;;5034746;28;20423;-66
2024/01/03 09:00:13;;;;;;;3.57;0.80;;;;;;;;;;5035368;28;20501;-66
2024/01/03 09:02:43;;;;;;;1.88;0.60;;;;;;;;;;5043868;28;20937;-66
2024/01/03 09:05:10;;;;;;;3.00;0.90;;;;;;;;;;5032462;28;20443;-66
2024/01/03 09:07:37;;;;;;;2.22;0.90;;;;;;;;;;5044003;28;20441;-67
2024/01/03 09:10:06;;;;;;;2.45;0.60;;;;;;;;;;5037914;28;20444;-66
2024/01/03 09:12:33;;;;;;;1.23;0.52;;;;;;;;;;5042704;28;20425;-67
2024/01/03 09:15:03;;;;;;;2.22;0.63;;;;;;;;;;5044467;28;20425;-67
2024/01/03 09:17:33;;;;;;;2.63;0.60;;;;;;;;;;5033713;28;20427;-66
2024/01/03 09:20:01;;;;;;;1.75;0.80;;;;;;;;;;5038946;28;20425;-66
2024/01/03 09:22:28;;;;;;;1.10;0.57;;;;;;;;;;5045411;28;20437;-66
2024/01/03 09:24:55;;;;;;;1.98;0.68;;;;;;;;;;5037766;28;20485;-66
2024/01/03 09:27:23;;;;;;;1.80;0.60;;;;;;;;;;5041194;28;20971;-65
2024/01/03 09:29:50;;;;;;;4.72;0.80;;;;;;;;;;5037803;28;20442;-65
2024/01/03 09:32:17;;;;;;;4.72;0.70;;;;;;;;;;5040965;28;20439;-66
2024/01/03 09:34:45;;;;;;;1.77;0.68;;;;;;;;;;5038647;28;20507;-65
2024/01/03 09:37:17;;;;;;;2.30;0.90;;;;;;;;;;5049225;28;20429;-66
2024/01/03 09:39:44;;;;;;;2.58;0.88;;;;;;;;;;5046128;28;20425;-66
2024/01/03 09:42:12;;;;;;;1.90;0.68;;;;;;;;;;5034064;28;20434;-65
2024/01/03 09:44:42;;;;;;;4.80;0.70;;;;;;;;;;5036187;28;20883;-65
2024/01/03 09:47:10;;;;;;;1.80;0.70;;;;;;;;;;5030546;28;20521;-66
2024/01/03 09:49:37;;;;;;;1.75;0.80;;;;;;;;;;5032115;28;20525;-65
2024/01/03 09:52:05;;;;;;;1.88;0.60;;;;;;;;;;5042307;28;20435;-65
2024/01/03 09:54:33;;;;;;;1.95;0.70;;;;;;;;;;5040779;28;20437;-65
2024/01/03 09:57:01;;;;;;;2.38;0.63;;;;;;;;;;5042056;28;21037;-65
2024/01/03 09:59:28;;;;;;;3.42;0.80;;;;;;;;;;5038248;28;20430;-65
2024/01/03 10:01:56;;;;;;;3.92;1.13;;;;;;;;;;5036671;28;20795;-65
2024/01/03 10:04:26;;;;;;;3.28;0.70;;;;;;;;;;5038118;28;20998;-65
2024/01/03 10:06:55;;;;;;;2.83;0.87;;;;;;;;;;5037092;28;20744;-65
2024/01/03 10:09:22;;;;;;;3.03;1.20;;;;;;;;;;5043065;28;20466;-65
2024/01/03 10:11:52;;;;;;;2.80;0.80;;;;;;;;;;5038086;28;20872;-66
2024/01/03 10:14:25;;;;;;;4.07;0.80;;;;;;;;;;5037571;28;20488;-66
2024/01/03 10:16:52;;;;;;;2.67;0.93;;;;;;;;;;5037595;28;20520;-66
2024/01/03 10:19:20;;;;;;;2.90;1.00;;;;;;;;;;5043649;28;20476;-66
2024/01/03 10:21:49;;;;;;;3.47;1.10;;;;;;;;;;5041574;28;21084;-65
2024/01/03 10:24:17;;;;;;;2.72;0.88;;;;;;;;;;5044672;28;20425;-65
2024/01/03 10:26:48;;;;;;;3.85;0.77;;;;;;;;;;5035948;28;20444;-65
2024/01/03 10:29:17;;;;;;;4.03;1.05;;;;;;;;;;5045090;28;20437;-65
2024/01/03 10:31:45;;;;;;;4.00;0.90;;;;;;;;;;5032638;28;20469;-65
2024/01/03 10:34:15;;;;;;;2.47;0.82;;;;;;;;;;5046159;28;20432;-64
2024/01/03 10:36:45;;;;;;;3.95;1.13;;;;;;;;;;5043346;28;20429;-65
2024/01/03 10:39:15;;;;;;;4.00;1.20;;;;;;;;;;5047824;28;20455;-64
2024/01/03 10:41:49;;;;;;;2.88;1.00;;;;;;;;;;5040447;28;20429;-64
2024/01/03 10:44:17;;;;;;;5.00;1.45;;;;;;;;;;5036482;28;20431;-64
2024/01/03 10:46:45;;;;;;;5.45;1.02;;;;;;;;;;5041358;28;20434;-65
2024/01/03 10:49:15;;;;;;;3.70;0.95;;;;;;;;;;5042575;28;20458;-63
2024/01/03 10:51:44;;;;;;;4.07;1.13;;;;;;;;;;5039471;28;20835;-64
2024/01/03 10:54:16;;;;;;;1.85;0.88;;;;;;;;;;5034600;28;20837;-65
2024/01/03 10:56:52;;;;;;;1.65;1.02;;;;;;;;;;5044126;28;20429;-65
2024/01/03 10:59:29;;;;;;;4.73;1.10;;;;;;;;;;5041346;28;20441;-65
2024/01/03 11:02:02;;;;;;;2.95;1.10;;;;;;;;;;5031641;28;20442;-65
2024/01/03 11:04:35;;;;;;;2.35;0.82;;;;;;;;;;5042176;28;20438;-65
2024/01/03 11:07:07;;;;;;;3.65;0.90;;;;;;;;;;5046966;28;20882;-65
2024/01/03 11:09:35;;;;;;;2.77;0.80;;;;;;;;;;5033824;28;20436;-65
2024/01/03 11:12:10;;;;;;;4.45;0.90;;;;;;;;;;5037640;28;20813;-65
2024/01/03 11:14:38;;;;;;;3.17;0.95;;;;;;;;;;5034401;28;20440;-65
2024/01/03 11:17:06;;;;;;;3.90;0.80;;;;;;;;;;5034921;28;20941;-65
2024/01/03 11:19:34;;;;;;;2.92;1.00;;;;;;;;;;5044722;28;20425;-65
2024/01/03 11:22:05;;;;;;;3.40;0.98;;;;;;;;;;5046291;28;20431;-65
2024/01/03 11:24:32;;;;;;;7.30;1.88;;;;;;;;;;5045794;28;20971;-64
2024/01/03 11:27:04;;;;;;;3.80;1.20;;;;;;;;;;5046713;28;20830;-64
2024/01/03 11:29:35;;;;;;;2.83;1.30;;;;;;;;;;5042920;28;20434;-64
2024/01/03 11:32:04;;;;;;;3.20;1.02;;;;;;;;;;5045327;28;20491;-64
2024/01/03 11:34:38;;;;;;;4.95;1.52;;;;;;;;;;5034329;28;20426;-64
2024/01/03 11:37:12;;;;;;;2.42;0.65;;;;;;;;;;5036378;28;20513;-65
2024/01/03 11:39:42;;;;;;;2.67;0.93;;;;;;;;;;5039745;28;20523;-64
2024/01/03 11:42:10;;;;;;;3.65;1.10;;;;;;;;;;5034816;28;20469;-64
2024/01/03 11:44:37;;;;;;;5.47;1.17;;;;;;;;;;5035402;28;20444;-64
2024/01/03 11:47:08;;;;;;;7.18;1.30;;;;;;;;;;5036937;28;20431;-64
2024/01/03 11:49:37;;;;;;;5.30;1.20;;;;;;;;;;5042272;28;20477;-65
2024/01/03 11:52:05;;;;;;;4.82;1.35;;;;;;;;;;5035570;28;20526;-65
2024/01/03 11:54:33;;;;;;;4.20;0.95;;;;;;;;;;5045333;28;21036;-64
2024/01/03 11:57:10;;;;;;;3.88;1.00;;;;;;;;;;5042231;28;20425;-64
2024/01/03 11:59:37;;;;;;;4.65;1.42;;;;;;;;;;5037430;28;20516;-64
2024/01/03 12:02:05;;;;;;;3.08;0.90;;;;;;;;;;5041972;28;20476;-64
2024/01/03 12:04:32;;;;;;;2.78;0.82;;;;;;;;;;5035747;28;20966;-64
2024/01/03 12:07:00;;;;;;;4.95;1.10;;;;;;;;;;5035417;28;20429;-64
2024/01/03 12:09:32;;;;;;;3.58;0.98;;;;;;;;;;5037721;28;20438;-64
2024/01/03 12:11:59;;;;;;;4.23;1.17;;;;;;;;;;5030612;28;20438;-65
2024/01/03 12:14:30;;;;;;;4.03;1.00;;;;;;;;;;5035562;28;20427;-65
2024/01/03 12:16:58;;;;;;;5.70;1.10;;;;;;;;;;5042690;28;20498;-65
2024/01/03 12:19:26;;;;;;;6.55;1.30;;;;;;;;;;5043672;28;20528;-65
2024/01/03 12:22:02;;;;;;;6.38;1.55;;;;;;;;;;5048268;28;20429;-65
2024/01/03 12:24:39;;;;;;;3.97;1.25;;;;;;;;;;5039765;28;20433;-65
2024/01/03 12:27:06;;;;;;;4.47;1.05;;;;;;;;;;5046103;28;20438;-65
2024/01/03 12:29:34;;;;;;;5.63;1.38;;;;;;;;;;5050575;28;20429;-66
2024/01/03 12:32:11;;;;;;;3.33;1.10;;;;;;;;;;5040885;28;20433;-65
2024/01/03 12:34:39;;;;;;;5.27;1.20;;;;;;;;;;5039628;28;20429;-66
2024/01/03 12:37:06;;;;;;;3.90;1.37;;;;;;;;;;5045034;28;20429;-65
2024/01/03 12:39:38;;;;;;;5.25;1.20;;;;;;;;;;5034479;28;20477;-66
2024/01/03 12:42:12;;;;;;;7.47;1.30;;;;;;;;;;5045406;28;20437;-66
2024/01/03 12:44:43;;;;;;;6.53;1.48;;;;;;;;;;5048127;28;20456;-66
2024/01/03 12:47:13;;;;;;;7.63;1.20;;;;;;;;;;5041511;28;20437;-66
2024/01/03 12:49:40;;;;;;;3.05;1.00;;;;;;;;;;5037753;28;20435;-66
2024/01/03 12:52:09;;;;;;;3.87;1.40;;;;;;;;;;5045255;28;20520;-66
2024/01/03 12:54:36;;;;;;;3.90;1.10;;;;;;;;;;5038994;28;20465;-66
2024/01/03 12:57:08;;;;;;;6.93;1.25;;;;;;;;;;5048186;28;20883;-66
2024/01/03 12:59:36;;;;;;;5.07;1.40;;;;;;;;;;5048327;28;20429;-65
2024/01/03 13:02:06;;;;;;;5.15;1.35;;;;;;;;;;5049301;28;20436;-65
2024/01/03 13:04:34;;;;;;;5.82;1.65;;;;;;;;;;5041218;28;20464;-65
2024/01/03 13:07:03;;;;;;;4.80;1.10;;;;;;;;;;5044909;28;20907;-66
2024/01/03 13:09:31;;;;;;;5.80;1.20;;;;;;;;;;5045791;28;20486;-66
2024/01/03 13:11:58;;;;;;;5.47;1.40;;;;;;;;;;5045101;28;20429;-66
2024/01/03 13:14:25;;;;;;;4.63;1.17;;;;;;;;;;5037945;28;20539;-66
2024/01/03 13:16:52;;;;;;;4.67;1.40;;;;;;;;;;5044731;28;20436;-66
2024/01/03 13:19:20;;;;;;;5.50;1.25;;;;;;;;;;5038129;28;21053;-65
2024/01/03 13:21:47;;;;;;;4.28;1.05;;;;;;;;;;5048889;28;20430;-66
2024/01/03 13:24:14;;;;;;;4.95;1.08;;;;;;;;;;5046853;28;20429;-66
2024/01/03 13:26:42;;;;;;;2.03;0.80;;;;;;;;;;5042238;28;20520;-65
2024/01/03 13:29:09;;;;;;;1.93;0.83;;;;;;;;;;5036434;28;20667;-65
2024/01/03 13:31:36;;;;;;;4.07;0.90;;;;;;;;;;5039763;28;20491;-66
2024/01/03 13:34:03;;;;;;;1.83;0.80;;;;;;;;;;5041744;28;20457;-65
2024/01/03 13:36:31;;;;;;;3.65;0.85;;;;;;;;;;5037335;28;20469;-65
2024/01/03 13:38:59;;;;;;;3.00;0.57;;;;;;;;;;5048043;28;20437;-65
2024/01/03 13:41:27;;;;;;;3.22;0.80;;;;;;;;;;5039153;28;20429;-65
2024/01/03 13:43:59;;;;;;;1.40;0.60;;;;;;;;;;5033438;28;20423;-65
2024/01/03 13:46:28;;;;;;;0.75;0.60;;;;;;;;;;5033494;28;20433;-65
2024/01/03 13:48:56;;;;;;;1.30;0.60;;;;;;;;;;5040224;28;20428;-65
2024/01/03 13:51:23;;;;;;;1.07;0.60;;;;;;;;;;5033655;28;20429;-65
2024/01/03 13:53:53;;;;;;;1.98;0.70;;;;;;;;;;5048441;28;20437;-66
2024/01/03 13:56:20;;;;;;;1.63;0.60;;;;;;;;;;5040078;28;20439;-65
2024/01/03 13:58:48;;;;;;;1.55;0.45;;;;;;;;;;5041991;28;20437;-66
2024/01/03 14:01:16;;;;;;;2.57;0.60;;;;;;;;;;5044108;28;20429;-66
2024/01/03 14:03:44;;;;;;;1.98;0.80;;;;;;;;;;5037527;28;20431;-65
2024/01/03 14:06:15;;;;;;;2.27;0.50;;;;;;;;;;5044430;28;20520;-65
2024/01/03 14:08:44;;;;;;;1.23;0.40;;;;;;;;;;5041254;28;21138;-67
2024/01/03 14:11:12;;;;;;;1.58;0.50;;;;;;;;;;5039844;28;20575;-68
2024/01/03 14:13:40;;;;;;;1.33;0.50;;;;;;;;;;5047881;28;20429;-67
2024/01/03 14:16:08;;;;;;;2.60;0.45;;;;;;;;;;5046808;28;21091;-67
2024/01/03 14:18:35;;;;;;;0.60;0.60;;;;;;;;;;5045673;28;20457;-67
2024/01/03 14:21:03;;;;;;;1.67;0.57;;;;;;;;;;5047428;28;20471;-67
2024/01/03 14:23:31;;;;;;;1.63;0.57;;;;;;;;;;5037459;28;20435;-67
2024/01/03 14:26:02;;;;;;;0.80;0.45;;;;;;;;;;5038044;28;20525;-67
2024/01/03 14:28:30;;;;;;;0.70;0.40;;;;;;;;;;5037487;28;20438;-67
2024/01/03 14:30:57;;;;;;;1.27;0.50;;;;;;;;;;5041953;28;20848;-67
2024/01/03 14:33:24;;;;;;;2.33;0.40;;;;;;;;;;5036225;28;20435;-67
2024/01/03 14:35:52;;;;;;;0.60;0.45;;;;;;;;;;5036881;28;20432;-67
2024/01/03 14:38:19;;;;;;;0.75;0.57;;;;;;;;;;5044334;28;20428;-67
2024/01/03 14:40:48;;;;;;;1.65;0.65;;;;;;;;;;5047401;28;20429;-67
2024/01/03 14:43:31;;;;;;;2.85;0.50;;;;;;;;;;5036128;28;20486;-67
2024/01/03 14:46:01;;;;;;;1.57;0.70;;;;;;;;;;5037214;28;20446;-67
2024/01/03 14:48:30;;;;;;;3.80;0.95;;;;;;;;;;5032999;28;20446;-67
2024/01/03 14:50:58;;;;;;;1.50;0.60;;;;;;;;;;5039128;28;20432;-67